sensor_id;sensor_type;location;lat;lon;timestamp;P1;durP1;ratioP1;P2;durP2;ratioP2
7685;SDS011;3885;51.474;-2.576;2022-07-10T00:00:27;0.90;;;0.80;;
7685;SDS011;3885;51.474;-2.576;2022-07-10T00:02:57;0.80;;;0.80;;
7685;SDS011;3885;51.474;-2.576;2022-07-10T00:05:24;1.33;;;0.90;;
7685;SDS011;3885;51.474;-2.576;2022-07-10T00:07:52;0.60;;;0.60;;
7685;SDS011;3885;51.474;-2.576;2022-07-10T00:10:19;0.90;;;0.80;;
7685;SDS011;3885;51.474;-2.576;2022-07-10T00:12:47;1.63;;;1.00;;
7685;SDS011;3885;51.474;-2.576;2022-07-10T00:15:15;6.43;;;1.20;;
7685;SDS011;3885;51.474;-2.576;2022-07-10T00:17:43;0.93;;;0.93;;
7685;SDS011;3885;51.474;-2.576;2022-07-10T00:20:12;1.40;;;0.80;;
7685;SDS011;3885;51.474;-2.576;2022-07-10T00:22:40;0.97;;;0.87;;
7685;SDS011;3885;51.474;-2.576;2022-07-10T00:25:08;3.33;;;1.20;;
7685;SDS011;3885;51.474;-2.576;2022-07-10T00:27:36;0.80;;;0.80;;
7685;SDS011;3885;51.474;-2.576;2022-07-10T00:30:04;1.23;;;1.00;;
7685;SDS011;3885;51.474;-2.576;2022-07-10T00:32:31;0.90;;;0.90;;
7685;SDS011;3885;51.474;-2.576;2022-07-10T00:34:58;1.90;;;1.00;;
7685;SDS011;3885;51.474;-2.576;2022-07-10T00:37:28;0.80;;;0.80;;
7685;SDS011;3885;51.474;-2.576;2022-07-10T00:39:55;3.27;;;1.20;;
7685;SDS011;3885;51.474;-2.576;2022-07-10T00:42:22;0.80;;;0.80;;
7685;SDS011;3885;51.474;-2.576;2022-07-10T00:44:49;1.20;;;1.10;;
7685;SDS011;3885;51.474;-2.576;2022-07-10T00:47:16;1.73;;;1.00;;
7685;SDS011;3885;51.474;-2.576;2022-07-10T00:49:44;0.90;;;0.90;;
7685;SDS011;3885;51.474;-2.576;2022-07-10T00:52:12;0.90;;;0.80;;
7685;SDS011;3885;51.474;-2.576;2022-07-10T00:54:43;2.00;;;0.90;;
7685;SDS011;3885;51.474;-2.576;2022-07-10T00:57:12;0.80;;;0.80;;
7685;SDS011;3885;51.474;-2.576;2022-07-10T00:59:40;1.13;;;0.97;;
7685;SDS011;3885;51.474;-2.576;2022-07-10T01:02:07;0.80;;;0.80;;
7685;SDS011;3885;51.474;-2.576;2022-07-10T01:04:35;1.57;;;0.80;;
7685;SDS011;3885;51.474;-2.576;2022-07-10T01:07:02;1.80;;;0.90;;
7685;SDS011;3885;51.474;-2.576;2022-07-10T01:09:31;1.37;;;0.80;;
7685;SDS011;3885;51.474;-2.576;2022-07-10T01:12:01;1.07;;;1.00;;
7685;SDS011;3885;51.474;-2.576;2022-07-10T01:14:29;1.37;;;1.17;;
7685;SDS011;3885;51.474;-2.576;2022-07-10T01:16:57;1.30;;;0.87;;
7685;SDS011;3885;51.474;-2.576;2022-07-10T01:19:24;7.03;;;1.13;;
7685;SDS011;3885;51.474;-2.576;2022-07-10T01:21:53;0.90;;;0.90;;
7685;SDS011;3885;51.474;-2.576;2022-07-10T01:24:20;1.07;;;0.90;;
7685;SDS011;3885;51.474;-2.576;2022-07-10T01:26:47;0.80;;;0.80;;
7685;SDS011;3885;51.474;-2.576;2022-07-10T01:29:14;1.80;;;0.90;;
7685;SDS011;3885;51.474;-2.576;2022-07-10T01:31:40;1.00;;;0.90;;
7685;SDS011;3885;51.474;-2.576;2022-07-10T01:34:08;1.20;;;0.70;;
7685;SDS011;3885;51.474;-2.576;2022-07-10T01:36:36;1.83;;;1.17;;
7685;SDS011;3885;51.474;-2.576;2022-07-10T01:39:05;1.00;;;0.80;;
7685;SDS011;3885;51.474;-2.576;2022-07-10T01:41:33;1.47;;;1.00;;
7685;SDS011;3885;51.474;-2.576;2022-07-10T01:44:00;0.80;;;0.80;;
7685;SDS011;3885;51.474;-2.576;2022-07-10T01:46:27;1.00;;;1.00;;
7685;SDS011;3885;51.474;-2.576;2022-07-10T01:48:55;1.07;;;1.03;;
7685;SDS011;3885;51.474;-2.576;2022-07-10T01:51:22;3.23;;;1.10;;
7685;SDS011;3885;51.474;-2.576;2022-07-10T01:53:49;2.50;;;1.43;;
7685;SDS011;3885;51.474;-2.576;2022-07-10T01:56:18;1.13;;;1.03;;
7685;SDS011;3885;51.474;-2.576;2022-07-10T01:58:45;1.57;;;1.30;;
7685;SDS011;3885;51.474;-2.576;2022-07-10T02:01:11;1.23;;;0.80;;
7685;SDS011;3885;51.474;-2.576;2022-07-10T02:03:38;0.90;;;0.80;;
7685;SDS011;3885;51.474;-2.576;2022-07-10T02:06:23;2.30;;;1.17;;
7685;SDS011;3885;51.474;-2.576;2022-07-10T02:08:50;1.40;;;1.10;;
7685;SDS011;3885;51.474;-2.576;2022-07-10T02:11:18;1.03;;;0.93;;
7685;SDS011;3885;51.474;-2.576;2022-07-10T02:13:45;0.87;;;0.83;;
7685;SDS011;3885;51.474;-2.576;2022-07-10T02:16:13;1.00;;;0.90;;
7685;SDS011;3885;51.474;-2.576;2022-07-10T02:18:39;1.50;;;1.40;;
7685;SDS011;3885;51.474;-2.576;2022-07-10T02:21:06;1.80;;;1.40;;
7685;SDS011;3885;51.474;-2.576;2022-07-10T02:23:34;1.07;;;0.97;;
7685;SDS011;3885;51.474;-2.576;2022-07-10T02:26:01;0.93;;;0.90;;
7685;SDS011;3885;51.474;-2.576;2022-07-10T02:28:30;1.63;;;1.23;;
7685;SDS011;3885;51.474;-2.576;2022-07-10T02:30:57;1.17;;;1.07;;
7685;SDS011;3885;51.474;-2.576;2022-07-10T02:33:24;1.43;;;1.33;;
7685;SDS011;3885;51.474;-2.576;2022-07-10T02:35:51;1.47;;;1.33;;
7685;SDS011;3885;51.474;-2.576;2022-07-10T02:38:18;0.90;;;0.90;;
7685;SDS011;3885;51.474;-2.576;2022-07-10T02:40:45;1.23;;;1.13;;
7685;SDS011;3885;51.474;-2.576;2022-07-10T02:43:12;1.97;;;1.50;;
7685;SDS011;3885;51.474;-2.576;2022-07-10T02:45:40;2.17;;;1.20;;
7685;SDS011;3885;51.474;-2.576;2022-07-10T02:48:07;1.30;;;1.20;;
7685;SDS011;3885;51.474;-2.576;2022-07-10T02:50:34;1.57;;;1.47;;
7685;SDS011;3885;51.474;-2.576;2022-07-10T02:53:01;1.40;;;1.30;;
7685;SDS011;3885;51.474;-2.576;2022-07-10T02:55:28;1.20;;;1.10;;
7685;SDS011;3885;51.474;-2.576;2022-07-10T02:57:57;1.27;;;1.17;;
7685;SDS011;3885;51.474;-2.576;2022-07-10T03:00:24;1.60;;;1.37;;
7685;SDS011;3885;51.474;-2.576;2022-07-10T03:02:53;1.93;;;1.50;;
7685;SDS011;3885;51.474;-2.576;2022-07-10T03:05:20;3.03;;;1.73;;
7685;SDS011;3885;51.474;-2.576;2022-07-10T03:07:47;1.20;;;1.20;;
7685;SDS011;3885;51.474;-2.576;2022-07-10T03:10:14;1.33;;;1.23;;
7685;SDS011;3885;51.474;-2.576;2022-07-10T03:12:41;1.40;;;1.30;;
7685;SDS011;3885;51.474;-2.576;2022-07-10T03:15:08;1.33;;;1.20;;
7685;SDS011;3885;51.474;-2.576;2022-07-10T03:17:36;1.67;;;1.57;;
7685;SDS011;3885;51.474;-2.576;2022-07-10T03:20:05;1.37;;;1.27;;
7685;SDS011;3885;51.474;-2.576;2022-07-10T03:22:33;1.70;;;1.60;;
7685;SDS011;3885;51.474;-2.576;2022-07-10T03:25:01;3.53;;;2.40;;
7685;SDS011;3885;51.474;-2.576;2022-07-10T03:27:28;2.07;;;1.93;;
7685;SDS011;3885;51.474;-2.576;2022-07-10T03:29:55;2.40;;;1.73;;
7685;SDS011;3885;51.474;-2.576;2022-07-10T03:32:22;1.63;;;1.37;;
7685;SDS011;3885;51.474;-2.576;2022-07-10T03:34:48;2.40;;;1.80;;
7685;SDS011;3885;51.474;-2.576;2022-07-10T03:37:17;1.53;;;1.20;;
7685;SDS011;3885;51.474;-2.576;2022-07-10T03:39:44;1.67;;;1.40;;
7685;SDS011;3885;51.474;-2.576;2022-07-10T03:42:11;1.43;;;1.33;;
7685;SDS011;3885;51.474;-2.576;2022-07-10T03:44:37;1.80;;;1.50;;
7685;SDS011;3885;51.474;-2.576;2022-07-10T03:47:04;1.87;;;1.43;;
7685;SDS011;3885;51.474;-2.576;2022-07-10T03:49:31;1.80;;;1.70;;
7685;SDS011;3885;51.474;-2.576;2022-07-10T03:51:59;3.80;;;2.70;;
7685;SDS011;3885;51.474;-2.576;2022-07-10T03:54:28;7.57;;;2.67;;
7685;SDS011;3885;51.474;-2.576;2022-07-10T03:56:56;3.40;;;2.40;;
7685;SDS011;3885;51.474;-2.576;2022-07-10T03:59:40;1.77;;;1.67;;
7685;SDS011;3885;51.474;-2.576;2022-07-10T04:02:07;11.50;;;4.80;;
7685;SDS011;3885;51.474;-2.576;2022-07-10T04:04:34;6.47;;;4.63;;
7685;SDS011;3885;51.474;-2.576;2022-07-10T04:07:02;7.30;;;4.20;;
7685;SDS011;3885;51.474;-2.576;2022-07-10T04:09:32;4.10;;;3.30;;
7685;SDS011;3885;51.474;-2.576;2022-07-10T04:11:59;8.87;;;6.13;;
7685;SDS011;3885;51.474;-2.576;2022-07-10T04:14:26;8.77;;;5.97;;
7685;SDS011;3885;51.474;-2.576;2022-07-10T04:16:53;11.50;;;4.70;;
7685;SDS011;3885;51.474;-2.576;2022-07-10T04:19:20;7.83;;;4.50;;
7685;SDS011;3885;51.474;-2.576;2022-07-10T04:21:47;11.93;;;5.43;;
7685;SDS011;3885;51.474;-2.576;2022-07-10T04:24:14;9.70;;;5.63;;
7685;SDS011;3885;51.474;-2.576;2022-07-10T04:26:43;10.93;;;6.77;;
7685;SDS011;3885;51.474;-2.576;2022-07-10T04:29:10;11.73;;;5.83;;
7685;SDS011;3885;51.474;-2.576;2022-07-10T04:31:37;10.00;;;6.40;;
7685;SDS011;3885;51.474;-2.576;2022-07-10T04:34:04;10.27;;;5.40;;
7685;SDS011;3885;51.474;-2.576;2022-07-10T04:36:31;6.07;;;4.63;;
7685;SDS011;3885;51.474;-2.576;2022-07-10T04:38:58;3.47;;;2.80;;
7685;SDS011;3885;51.474;-2.576;2022-07-10T04:41:25;3.73;;;3.33;;
7685;SDS011;3885;51.474;-2.576;2022-07-10T04:43:53;3.20;;;2.90;;
7685;SDS011;3885;51.474;-2.576;2022-07-10T04:46:20;2.17;;;1.97;;
7685;SDS011;3885;51.474;-2.576;2022-07-10T04:48:47;4.10;;;2.53;;
7685;SDS011;3885;51.474;-2.576;2022-07-10T04:51:15;5.23;;;3.23;;
7685;SDS011;3885;51.474;-2.576;2022-07-10T04:53:42;6.97;;;5.20;;
7685;SDS011;3885;51.474;-2.576;2022-07-10T04:56:09;4.37;;;3.63;;
7685;SDS011;3885;51.474;-2.576;2022-07-10T04:58:36;4.43;;;4.03;;
7685;SDS011;3885;51.474;-2.576;2022-07-10T05:01:05;4.73;;;3.50;;
7685;SDS011;3885;51.474;-2.576;2022-07-10T05:03:32;4.50;;;4.03;;
7685;SDS011;3885;51.474;-2.576;2022-07-10T05:05:58;4.03;;;3.30;;
7685;SDS011;3885;51.474;-2.576;2022-07-10T05:08:25;4.83;;;4.10;;
7685;SDS011;3885;51.474;-2.576;2022-07-10T05:10:52;3.37;;;3.07;;
7685;SDS011;3885;51.474;-2.576;2022-07-10T05:13:19;4.63;;;3.23;;
7685;SDS011;3885;51.474;-2.576;2022-07-10T05:15:46;4.90;;;3.37;;
7685;SDS011;3885;51.474;-2.576;2022-07-10T05:18:16;5.40;;;3.13;;
7685;SDS011;3885;51.474;-2.576;2022-07-10T05:20:43;5.60;;;3.03;;
7685;SDS011;3885;51.474;-2.576;2022-07-10T05:23:13;2.83;;;2.53;;
7685;SDS011;3885;51.474;-2.576;2022-07-10T05:25:40;2.77;;;2.57;;
7685;SDS011;3885;51.474;-2.576;2022-07-10T05:28:07;4.27;;;2.80;;
7685;SDS011;3885;51.474;-2.576;2022-07-10T05:30:34;4.80;;;2.60;;
7685;SDS011;3885;51.474;-2.576;2022-07-10T05:33:01;4.90;;;3.23;;
7685;SDS011;3885;51.474;-2.576;2022-07-10T05:35:30;4.83;;;2.80;;
7685;SDS011;3885;51.474;-2.576;2022-07-10T05:37:56;4.23;;;2.97;;
7685;SDS011;3885;51.474;-2.576;2022-07-10T05:40:23;3.60;;;3.10;;
7685;SDS011;3885;51.474;-2.576;2022-07-10T05:42:50;4.70;;;4.20;;
7685;SDS011;3885;51.474;-2.576;2022-07-10T05:45:17;6.67;;;3.80;;
7685;SDS011;3885;51.474;-2.576;2022-07-10T05:47:45;7.27;;;4.40;;
7685;SDS011;3885;51.474;-2.576;2022-07-10T05:50:12;11.37;;;5.80;;
7685;SDS011;3885;51.474;-2.576;2022-07-10T05:52:40;6.67;;;4.00;;
7685;SDS011;3885;51.474;-2.576;2022-07-10T05:55:07;13.83;;;7.30;;
7685;SDS011;3885;51.474;-2.576;2022-07-10T05:57:34;6.83;;;4.67;;
7685;SDS011;3885;51.474;-2.576;2022-07-10T06:00:02;7.83;;;6.20;;
7685;SDS011;3885;51.474;-2.576;2022-07-10T06:02:30;9.30;;;5.03;;
7685;SDS011;3885;51.474;-2.576;2022-07-10T06:04:57;7.70;;;5.20;;
7685;SDS011;3885;51.474;-2.576;2022-07-10T06:07:24;10.17;;;6.70;;
7685;SDS011;3885;51.474;-2.576;2022-07-10T06:09:53;11.53;;;6.20;;
7685;SDS011;3885;51.474;-2.576;2022-07-10T06:12:19;7.07;;;5.57;;
7685;SDS011;3885;51.474;-2.576;2022-07-10T06:14:46;7.13;;;5.37;;
7685;SDS011;3885;51.474;-2.576;2022-07-10T06:17:13;7.17;;;5.07;;
7685;SDS011;3885;51.474;-2.576;2022-07-10T06:19:40;8.80;;;5.93;;
7685;SDS011;3885;51.474;-2.576;2022-07-10T06:22:07;8.70;;;5.80;;
7685;SDS011;3885;51.474;-2.576;2022-07-10T06:24:53;8.67;;;6.47;;
7685;SDS011;3885;51.474;-2.576;2022-07-10T06:27:20;11.47;;;6.67;;
7685;SDS011;3885;51.474;-2.576;2022-07-10T06:29:47;8.90;;;5.90;;
7685;SDS011;3885;51.474;-2.576;2022-07-10T06:32:14;12.33;;;5.40;;
7685;SDS011;3885;51.474;-2.576;2022-07-10T06:34:41;7.90;;;6.10;;
7685;SDS011;3885;51.474;-2.576;2022-07-10T06:37:08;8.63;;;5.67;;
7685;SDS011;3885;51.474;-2.576;2022-07-10T06:39:35;10.97;;;7.13;;
7685;SDS011;3885;51.474;-2.576;2022-07-10T06:42:04;9.43;;;6.13;;
7685;SDS011;3885;51.474;-2.576;2022-07-10T06:44:31;7.60;;;5.20;;
7685;SDS011;3885;51.474;-2.576;2022-07-10T06:46:59;12.10;;;5.50;;
7685;SDS011;3885;51.474;-2.576;2022-07-10T06:49:44;8.77;;;6.10;;
7685;SDS011;3885;51.474;-2.576;2022-07-10T06:52:13;7.80;;;5.90;;
7685;SDS011;3885;51.474;-2.576;2022-07-10T06:54:40;8.20;;;5.70;;
7685;SDS011;3885;51.474;-2.576;2022-07-10T06:57:09;9.03;;;5.50;;
7685;SDS011;3885;51.474;-2.576;2022-07-10T06:59:36;8.73;;;5.57;;
7685;SDS011;3885;51.474;-2.576;2022-07-10T07:02:03;8.27;;;5.80;;
7685;SDS011;3885;51.474;-2.576;2022-07-10T07:04:30;9.50;;;5.87;;
7685;SDS011;3885;51.474;-2.576;2022-07-10T07:06:57;9.37;;;5.83;;
7685;SDS011;3885;51.474;-2.576;2022-07-10T07:09:24;6.33;;;5.00;;
7685;SDS011;3885;51.474;-2.576;2022-07-10T07:11:51;7.67;;;5.60;;
7685;SDS011;3885;51.474;-2.576;2022-07-10T07:14:19;9.17;;;5.97;;
7685;SDS011;3885;51.474;-2.576;2022-07-10T07:16:46;7.53;;;4.90;;
7685;SDS011;3885;51.474;-2.576;2022-07-10T07:19:23;9.90;;;5.87;;
7685;SDS011;3885;51.474;-2.576;2022-07-10T07:21:56;8.23;;;5.30;;
7685;SDS011;3885;51.474;-2.576;2022-07-10T07:24:46;7.27;;;4.90;;
7685;SDS011;3885;51.474;-2.576;2022-07-10T07:27:13;7.70;;;5.23;;
7685;SDS011;3885;51.474;-2.576;2022-07-10T07:29:41;7.03;;;5.90;;
7685;SDS011;3885;51.474;-2.576;2022-07-10T07:32:08;9.73;;;5.60;;
7685;SDS011;3885;51.474;-2.576;2022-07-10T07:34:35;6.73;;;4.70;;
7685;SDS011;3885;51.474;-2.576;2022-07-10T07:37:02;9.40;;;4.70;;
7685;SDS011;3885;51.474;-2.576;2022-07-10T07:39:29;6.80;;;4.80;;
7685;SDS011;3885;51.474;-2.576;2022-07-10T07:41:58;5.40;;;4.40;;
7685;SDS011;3885;51.474;-2.576;2022-07-10T07:44:25;7.33;;;4.73;;
7685;SDS011;3885;51.474;-2.576;2022-07-10T07:46:53;6.57;;;4.90;;
7685;SDS011;3885;51.474;-2.576;2022-07-10T07:49:20;5.03;;;4.03;;
7685;SDS011;3885;51.474;-2.576;2022-07-10T07:51:47;6.43;;;4.17;;
7685;SDS011;3885;51.474;-2.576;2022-07-10T07:54:15;6.00;;;4.40;;
7685;SDS011;3885;51.474;-2.576;2022-07-10T07:56:42;7.10;;;4.60;;
7685;SDS011;3885;51.474;-2.576;2022-07-10T07:59:09;6.77;;;4.17;;
7685;SDS011;3885;51.474;-2.576;2022-07-10T08:01:37;14.90;;;4.60;;
7685;SDS011;3885;51.474;-2.576;2022-07-10T08:04:06;6.70;;;4.90;;
7685;SDS011;3885;51.474;-2.576;2022-07-10T08:06:34;6.80;;;3.73;;
7685;SDS011;3885;51.474;-2.576;2022-07-10T08:09:01;4.57;;;3.60;;
7685;SDS011;3885;51.474;-2.576;2022-07-10T08:11:28;5.47;;;3.93;;
7685;SDS011;3885;51.474;-2.576;2022-07-10T08:13:55;4.97;;;3.47;;
7685;SDS011;3885;51.474;-2.576;2022-07-10T08:16:22;4.17;;;3.23;;
7685;SDS011;3885;51.474;-2.576;2022-07-10T08:18:49;3.80;;;3.10;;
7685;SDS011;3885;51.474;-2.576;2022-07-10T08:21:17;4.00;;;3.30;;
7685;SDS011;3885;51.474;-2.576;2022-07-10T08:23:44;5.90;;;3.80;;
7685;SDS011;3885;51.474;-2.576;2022-07-10T08:26:11;6.00;;;3.87;;
7685;SDS011;3885;51.474;-2.576;2022-07-10T08:28:37;4.73;;;4.03;;
7685;SDS011;3885;51.474;-2.576;2022-07-10T08:31:04;3.70;;;3.40;;
7685;SDS011;3885;51.474;-2.576;2022-07-10T08:33:31;4.83;;;3.60;;
7685;SDS011;3885;51.474;-2.576;2022-07-10T08:35:58;4.27;;;3.57;;
7685;SDS011;3885;51.474;-2.576;2022-07-10T08:38:27;3.87;;;3.57;;
7685;SDS011;3885;51.474;-2.576;2022-07-10T08:40:54;9.67;;;3.93;;
7685;SDS011;3885;51.474;-2.576;2022-07-10T08:43:22;4.30;;;3.17;;
7685;SDS011;3885;51.474;-2.576;2022-07-10T08:45:50;4.20;;;2.93;;
7685;SDS011;3885;51.474;-2.576;2022-07-10T08:48:19;4.50;;;3.57;;
7685;SDS011;3885;51.474;-2.576;2022-07-10T08:50:51;3.40;;;3.10;;
7685;SDS011;3885;51.474;-2.576;2022-07-10T08:53:22;4.27;;;2.70;;
7685;SDS011;3885;51.474;-2.576;2022-07-10T08:55:54;5.33;;;3.10;;
7685;SDS011;3885;51.474;-2.576;2022-07-10T08:58:22;3.97;;;3.00;;
7685;SDS011;3885;51.474;-2.576;2022-07-10T09:00:49;4.30;;;3.70;;
7685;SDS011;3885;51.474;-2.576;2022-07-10T09:03:16;3.07;;;2.70;;
7685;SDS011;3885;51.474;-2.576;2022-07-10T09:05:43;3.20;;;2.90;;
7685;SDS011;3885;51.474;-2.576;2022-07-10T09:08:23;3.50;;;3.20;;
7685;SDS011;3885;51.474;-2.576;2022-07-10T09:10:54;3.67;;;3.20;;
7685;SDS011;3885;51.474;-2.576;2022-07-10T09:13:48;4.07;;;3.67;;
7685;SDS011;3885;51.474;-2.576;2022-07-10T09:16:20;3.40;;;2.77;;
7685;SDS011;3885;51.474;-2.576;2022-07-10T09:18:48;3.03;;;2.83;;
7685;SDS011;3885;51.474;-2.576;2022-07-10T09:21:15;4.30;;;3.27;;
7685;SDS011;3885;51.474;-2.576;2022-07-10T09:23:42;3.57;;;3.27;;
7685;SDS011;3885;51.474;-2.576;2022-07-10T09:26:10;3.17;;;2.40;;
7685;SDS011;3885;51.474;-2.576;2022-07-10T09:28:38;6.37;;;3.43;;
7685;SDS011;3885;51.474;-2.576;2022-07-10T09:31:05;3.63;;;2.90;;
7685;SDS011;3885;51.474;-2.576;2022-07-10T09:33:32;2.90;;;2.53;;
7685;SDS011;3885;51.474;-2.576;2022-07-10T09:36:02;3.07;;;2.37;;
7685;SDS011;3885;51.474;-2.576;2022-07-10T09:38:47;3.70;;;3.30;;
7685;SDS011;3885;51.474;-2.576;2022-07-10T09:41:17;2.60;;;2.40;;
7685;SDS011;3885;51.474;-2.576;2022-07-10T09:43:46;2.50;;;2.30;;
7685;SDS011;3885;51.474;-2.576;2022-07-10T09:46:14;2.87;;;2.57;;
7685;SDS011;3885;51.474;-2.576;2022-07-10T09:48:41;4.00;;;3.10;;
7685;SDS011;3885;51.474;-2.576;2022-07-10T09:51:09;3.20;;;2.90;;
7685;SDS011;3885;51.474;-2.576;2022-07-10T09:53:37;5.30;;;3.10;;
7685;SDS011;3885;51.474;-2.576;2022-07-10T09:56:06;3.80;;;2.90;;
7685;SDS011;3885;51.474;-2.576;2022-07-10T09:58:36;3.20;;;2.80;;
7685;SDS011;3885;51.474;-2.576;2022-07-10T10:01:03;4.33;;;2.90;;
7685;SDS011;3885;51.474;-2.576;2022-07-10T10:03:32;3.73;;;3.00;;
7685;SDS011;3885;51.474;-2.576;2022-07-10T10:06:05;3.17;;;2.87;;
7685;SDS011;3885;51.474;-2.576;2022-07-10T10:08:42;3.90;;;2.50;;
7685;SDS011;3885;51.474;-2.576;2022-07-10T10:11:17;3.40;;;3.10;;
7685;SDS011;3885;51.474;-2.576;2022-07-10T10:13:47;2.47;;;2.27;;
7685;SDS011;3885;51.474;-2.576;2022-07-10T10:16:16;2.40;;;2.20;;
7685;SDS011;3885;51.474;-2.576;2022-07-10T10:18:45;2.23;;;2.03;;
7685;SDS011;3885;51.474;-2.576;2022-07-10T10:21:30;2.00;;;1.70;;
7685;SDS011;3885;51.474;-2.576;2022-07-10T10:23:58;2.97;;;2.33;;
7685;SDS011;3885;51.474;-2.576;2022-07-10T10:26:27;2.10;;;1.90;;
7685;SDS011;3885;51.474;-2.576;2022-07-10T10:28:57;3.00;;;1.67;;
7685;SDS011;3885;51.474;-2.576;2022-07-10T10:31:26;2.27;;;1.87;;
7685;SDS011;3885;51.474;-2.576;2022-07-10T10:33:54;2.30;;;2.10;;
7685;SDS011;3885;51.474;-2.576;2022-07-10T10:39:11;3.00;;;2.00;;
7685;SDS011;3885;51.474;-2.576;2022-07-10T10:41:41;2.83;;;2.53;;
7685;SDS011;3885;51.474;-2.576;2022-07-10T10:44:23;2.40;;;1.90;;
7685;SDS011;3885;51.474;-2.576;2022-07-10T10:46:57;2.03;;;1.73;;
7685;SDS011;3885;51.474;-2.576;2022-07-10T10:49:50;4.73;;;2.37;;
7685;SDS011;3885;51.474;-2.576;2022-07-10T10:52:18;4.23;;;2.63;;
7685;SDS011;3885;51.474;-2.576;2022-07-10T10:54:59;5.73;;;2.33;;
7685;SDS011;3885;51.474;-2.576;2022-07-10T10:57:37;3.47;;;2.23;;
7685;SDS011;3885;51.474;-2.576;2022-07-10T11:00:15;3.03;;;1.93;;
7685;SDS011;3885;51.474;-2.576;2022-07-10T11:03:14;3.00;;;2.30;;
7685;SDS011;3885;51.474;-2.576;2022-07-10T11:05:43;2.50;;;2.20;;
7685;SDS011;3885;51.474;-2.576;2022-07-10T11:08:11;1.87;;;1.77;;
7685;SDS011;3885;51.474;-2.576;2022-07-10T11:10:40;1.60;;;1.50;;
7685;SDS011;3885;51.474;-2.576;2022-07-10T11:13:08;1.80;;;1.50;;
7685;SDS011;3885;51.474;-2.576;2022-07-10T11:15:38;2.50;;;1.93;;
7685;SDS011;3885;51.474;-2.576;2022-07-10T11:18:07;1.47;;;1.37;;
7685;SDS011;3885;51.474;-2.576;2022-07-10T11:20:37;2.50;;;1.43;;
7685;SDS011;3885;51.474;-2.576;2022-07-10T11:23:08;3.77;;;1.70;;
7685;SDS011;3885;51.474;-2.576;2022-07-10T11:25:53;2.10;;;1.90;;
7685;SDS011;3885;51.474;-2.576;2022-07-10T11:28:47;2.90;;;1.67;;
7685;SDS011;3885;51.474;-2.576;2022-07-10T11:31:18;1.80;;;1.53;;
7685;SDS011;3885;51.474;-2.576;2022-07-10T11:33:46;2.10;;;1.90;;
7685;SDS011;3885;51.474;-2.576;2022-07-10T11:36:14;2.47;;;2.27;;
7685;SDS011;3885;51.474;-2.576;2022-07-10T11:38:43;3.00;;;2.30;;
7685;SDS011;3885;51.474;-2.576;2022-07-10T11:41:17;2.30;;;2.10;;
7685;SDS011;3885;51.474;-2.576;2022-07-10T11:43:47;1.93;;;1.73;;
7685;SDS011;3885;51.474;-2.576;2022-07-10T11:46:14;1.73;;;1.63;;
7685;SDS011;3885;51.474;-2.576;2022-07-10T11:48:43;2.23;;;1.80;;
7685;SDS011;3885;51.474;-2.576;2022-07-10T11:51:23;2.77;;;2.50;;
7685;SDS011;3885;51.474;-2.576;2022-07-10T11:53:55;2.13;;;1.97;;
7685;SDS011;3885;51.474;-2.576;2022-07-10T11:56:23;2.10;;;1.97;;
7685;SDS011;3885;51.474;-2.576;2022-07-10T11:58:54;2.37;;;1.50;;
7685;SDS011;3885;51.474;-2.576;2022-07-10T12:01:22;1.53;;;1.43;;
7685;SDS011;3885;51.474;-2.576;2022-07-10T12:04:00;1.87;;;1.60;;
7685;SDS011;3885;51.474;-2.576;2022-07-10T12:06:28;1.67;;;1.57;;
7685;SDS011;3885;51.474;-2.576;2022-07-10T12:09:00;2.13;;;1.57;;
7685;SDS011;3885;51.474;-2.576;2022-07-10T12:11:28;1.37;;;1.27;;
7685;SDS011;3885;51.474;-2.576;2022-07-10T12:14:08;1.37;;;1.27;;
7685;SDS011;3885;51.474;-2.576;2022-07-10T12:16:40;1.40;;;1.30;;
7685;SDS011;3885;51.474;-2.576;2022-07-10T12:19:10;1.33;;;1.23;;
7685;SDS011;3885;51.474;-2.576;2022-07-10T12:21:39;1.57;;;1.30;;
7685;SDS011;3885;51.474;-2.576;2022-07-10T12:24:08;1.77;;;1.67;;
7685;SDS011;3885;51.474;-2.576;2022-07-10T12:26:36;1.67;;;1.33;;
7685;SDS011;3885;51.474;-2.576;2022-07-10T12:29:04;1.30;;;1.20;;
7685;SDS011;3885;51.474;-2.576;2022-07-10T12:31:32;1.33;;;1.23;;
7685;SDS011;3885;51.474;-2.576;2022-07-10T12:34:00;1.73;;;1.63;;
7685;SDS011;3885;51.474;-2.576;2022-07-10T12:36:44;2.17;;;1.40;;
7685;SDS011;3885;51.474;-2.576;2022-07-10T12:39:12;2.47;;;1.77;;
7685;SDS011;3885;51.474;-2.576;2022-07-10T12:41:57;1.83;;;1.60;;
7685;SDS011;3885;51.474;-2.576;2022-07-10T12:44:35;1.97;;;1.17;;
7685;SDS011;3885;51.474;-2.576;2022-07-10T12:47:04;2.00;;;1.80;;
7685;SDS011;3885;51.474;-2.576;2022-07-10T12:49:50;1.37;;;1.27;;
7685;SDS011;3885;51.474;-2.576;2022-07-10T12:52:26;6.50;;;1.40;;
7685;SDS011;3885;51.474;-2.576;2022-07-10T12:55:06;1.27;;;1.17;;
7685;SDS011;3885;51.474;-2.576;2022-07-10T12:57:44;2.43;;;2.20;;
7685;SDS011;3885;51.474;-2.576;2022-07-10T13:00:16;1.30;;;1.20;;
7685;SDS011;3885;51.474;-2.576;2022-07-10T13:02:45;1.67;;;1.57;;
7685;SDS011;3885;51.474;-2.576;2022-07-10T13:05:24;1.83;;;1.50;;
7685;SDS011;3885;51.474;-2.576;2022-07-10T13:08:03;2.13;;;1.37;;
7685;SDS011;3885;51.474;-2.576;2022-07-10T13:10:32;1.97;;;1.30;;
7685;SDS011;3885;51.474;-2.576;2022-07-10T13:12:59;1.40;;;1.30;;
7685;SDS011;3885;51.474;-2.576;2022-07-10T13:15:26;1.30;;;1.20;;
7685;SDS011;3885;51.474;-2.576;2022-07-10T13:17:54;1.73;;;1.43;;
7685;SDS011;3885;51.474;-2.576;2022-07-10T13:20:21;1.20;;;1.10;;
7685;SDS011;3885;51.474;-2.576;2022-07-10T13:22:48;1.00;;;0.97;;
7685;SDS011;3885;51.474;-2.576;2022-07-10T13:25:17;1.20;;;1.10;;
7685;SDS011;3885;51.474;-2.576;2022-07-10T13:27:43;1.60;;;1.00;;
7685;SDS011;3885;51.474;-2.576;2022-07-10T13:30:11;1.50;;;1.30;;
7685;SDS011;3885;51.474;-2.576;2022-07-10T13:32:38;1.23;;;1.13;;
7685;SDS011;3885;51.474;-2.576;2022-07-10T13:35:05;1.00;;;1.00;;
7685;SDS011;3885;51.474;-2.576;2022-07-10T13:37:32;3.23;;;1.03;;
7685;SDS011;3885;51.474;-2.576;2022-07-10T13:39:59;1.13;;;1.03;;
7685;SDS011;3885;51.474;-2.576;2022-07-10T13:42:28;0.93;;;0.83;;
7685;SDS011;3885;51.474;-2.576;2022-07-10T13:44:55;1.00;;;0.90;;
7685;SDS011;3885;51.474;-2.576;2022-07-10T13:47:22;1.70;;;1.40;;
7685;SDS011;3885;51.474;-2.576;2022-07-10T13:49:48;0.93;;;0.93;;
7685;SDS011;3885;51.474;-2.576;2022-07-10T13:52:15;1.43;;;1.23;;
7685;SDS011;3885;51.474;-2.576;2022-07-10T13:54:42;1.37;;;1.27;;
7685;SDS011;3885;51.474;-2.576;2022-07-10T13:57:09;2.47;;;1.63;;
7685;SDS011;3885;51.474;-2.576;2022-07-10T13:59:38;1.53;;;1.30;;
7685;SDS011;3885;51.474;-2.576;2022-07-10T14:02:05;1.50;;;1.40;;
7685;SDS011;3885;51.474;-2.576;2022-07-10T14:04:32;3.00;;;1.33;;
7685;SDS011;3885;51.474;-2.576;2022-07-10T14:06:59;1.47;;;1.30;;
7685;SDS011;3885;51.474;-2.576;2022-07-10T14:09:26;1.87;;;1.47;;
7685;SDS011;3885;51.474;-2.576;2022-07-10T14:11:53;1.63;;;1.53;;
7685;SDS011;3885;51.474;-2.576;2022-07-10T14:14:20;1.30;;;1.20;;
7685;SDS011;3885;51.474;-2.576;2022-07-10T14:16:49;1.40;;;1.30;;
7685;SDS011;3885;51.474;-2.576;2022-07-10T14:19:16;1.70;;;1.60;;
7685;SDS011;3885;51.474;-2.576;2022-07-10T14:21:43;1.73;;;1.40;;
7685;SDS011;3885;51.474;-2.576;2022-07-10T14:24:10;1.87;;;1.00;;
7685;SDS011;3885;51.474;-2.576;2022-07-10T14:26:38;4.20;;;1.00;;
7685;SDS011;3885;51.474;-2.576;2022-07-10T14:29:05;3.37;;;1.10;;
7685;SDS011;3885;51.474;-2.576;2022-07-10T14:31:32;1.37;;;1.00;;
7685;SDS011;3885;51.474;-2.576;2022-07-10T14:34:01;0.90;;;0.90;;
7685;SDS011;3885;51.474;-2.576;2022-07-10T14:36:29;1.30;;;1.20;;
7685;SDS011;3885;51.474;-2.576;2022-07-10T14:38:56;1.00;;;0.90;;
7685;SDS011;3885;51.474;-2.576;2022-07-10T14:41:24;1.57;;;1.33;;
7685;SDS011;3885;51.474;-2.576;2022-07-10T14:43:51;1.47;;;1.10;;
7685;SDS011;3885;51.474;-2.576;2022-07-10T14:46:18;1.57;;;1.00;;
7685;SDS011;3885;51.474;-2.576;2022-07-10T14:48:45;1.10;;;1.00;;
7685;SDS011;3885;51.474;-2.576;2022-07-10T14:51:13;1.53;;;1.43;;
7685;SDS011;3885;51.474;-2.576;2022-07-10T14:53:40;2.30;;;0.80;;
7685;SDS011;3885;51.474;-2.576;2022-07-10T14:56:08;2.00;;;0.90;;
7685;SDS011;3885;51.474;-2.576;2022-07-10T14:58:35;0.70;;;0.60;;
7685;SDS011;3885;51.474;-2.576;2022-07-10T15:01:03;2.70;;;0.90;;
7685;SDS011;3885;51.474;-2.576;2022-07-10T15:03:30;2.60;;;1.00;;
7685;SDS011;3885;51.474;-2.576;2022-07-10T15:05:57;0.70;;;0.70;;
7685;SDS011;3885;51.474;-2.576;2022-07-10T15:08:25;0.90;;;0.70;;
7685;SDS011;3885;51.474;-2.576;2022-07-10T15:10:52;1.50;;;0.93;;
7685;SDS011;3885;51.474;-2.576;2022-07-10T15:13:20;1.10;;;1.00;;